sensor_id;sensor_type;location;lat;lon;timestamp;P1;durP1;ratioP1;P2;durP2;ratioP2
30998;SDS011;20549;50.042;8.968;2022-11-15T00:00:17;3.27;;;2.98;;
30998;SDS011;20549;50.042;8.968;2022-11-15T00:02:43;2.83;;;2.50;;
30998;SDS011;20549;50.042;8.968;2022-11-15T00:05:10;2.85;;;2.52;;
30998;SDS011;20549;50.042;8.968;2022-11-15T00:07:36;4.23;;;2.83;;
30998;SDS011;20549;50.042;8.968;2022-11-15T00:10:03;3.67;;;2.70;;
30998;SDS011;20549;50.042;8.968;2022-11-15T00:12:30;3.67;;;3.17;;
30998;SDS011;20549;50.042;8.968;2022-11-15T00:14:56;3.90;;;2.70;;
30998;SDS011;20549;50.042;8.968;2022-11-15T00:17:23;4.00;;;2.80;;
30998;SDS011;20549;50.042;8.968;2022-11-15T00:19:49;2.60;;;2.40;;
30998;SDS011;20549;50.042;8.968;2022-11-15T00:22:16;3.63;;;3.27;;
30998;SDS011;20549;50.042;8.968;2022-11-15T00:24:43;3.97;;;2.90;;
30998;SDS011;20549;50.042;8.968;2022-11-15T00:27:09;3.87;;;2.80;;
30998;SDS011;20549;50.042;8.968;2022-11-15T00:29:36;3.20;;;2.77;;
30998;SDS011;20549;50.042;8.968;2022-11-15T00:32:02;3.47;;;3.17;;
30998;SDS011;20549;50.042;8.968;2022-11-15T00:34:29;6.43;;;2.90;;
30998;SDS011;20549;50.042;8.968;2022-11-15T00:36:55;4.20;;;2.87;;
30998;SDS011;20549;50.042;8.968;2022-11-15T00:39:22;3.20;;;2.90;;
30998;SDS011;20549;50.042;8.968;2022-11-15T00:41:49;3.77;;;3.17;;
30998;SDS011;20549;50.042;8.968;2022-11-15T00:44:15;4.43;;;3.33;;
30998;SDS011;20549;50.042;8.968;2022-11-15T00:46:42;3.50;;;3.13;;
30998;SDS011;20549;50.042;8.968;2022-11-15T00:49:08;3.83;;;3.03;;
30998;SDS011;20549;50.042;8.968;2022-11-15T00:51:35;4.07;;;2.90;;
30998;SDS011;20549;50.042;8.968;2022-11-15T00:54:02;3.23;;;2.93;;
30998;SDS011;20549;50.042;8.968;2022-11-15T00:56:28;3.67;;;2.90;;
30998;SDS011;20549;50.042;8.968;2022-11-15T00:58:55;6.43;;;3.80;;
30998;SDS011;20549;50.042;8.968;2022-11-15T01:01:21;3.77;;;2.73;;
30998;SDS011;20549;50.042;8.968;2022-11-15T01:03:48;3.23;;;2.93;;
30998;SDS011;20549;50.042;8.968;2022-11-15T01:06:14;3.60;;;2.80;;
30998;SDS011;20549;50.042;8.968;2022-11-15T01:08:41;2.93;;;2.70;;
30998;SDS011;20549;50.042;8.968;2022-11-15T01:11:09;2.90;;;2.70;;
30998;SDS011;20549;50.042;8.968;2022-11-15T01:13:34;2.67;;;2.47;;
30998;SDS011;20549;50.042;8.968;2022-11-15T01:16:12;3.07;;;2.53;;
30998;SDS011;20549;50.042;8.968;2022-11-15T01:18:33;3.13;;;2.83;;
30998;SDS011;20549;50.042;8.968;2022-11-15T01:21:03;3.53;;;2.93;;
30998;SDS011;20549;50.042;8.968;2022-11-15T01:23:26;3.17;;;2.87;;
30998;SDS011;20549;50.042;8.968;2022-11-15T01:25:57;3.20;;;2.80;;
30998;SDS011;20549;50.042;8.968;2022-11-15T01:28:20;3.05;;;2.75;;
30998;SDS011;20549;50.042;8.968;2022-11-15T01:30:46;3.87;;;2.80;;
30998;SDS011;20549;50.042;8.968;2022-11-15T01:33:13;2.33;;;2.23;;
30998;SDS011;20549;50.042;8.968;2022-11-15T01:35:39;3.72;;;2.80;;
30998;SDS011;20549;50.042;8.968;2022-11-15T01:38:06;3.30;;;2.60;;
30998;SDS011;20549;50.042;8.968;2022-11-15T01:40:32;3.40;;;3.10;;
30998;SDS011;20549;50.042;8.968;2022-11-15T01:43:17;3.33;;;2.67;;
30998;SDS011;20549;50.042;8.968;2022-11-15T01:45:26;4.83;;;2.90;;
30998;SDS011;20549;50.042;8.968;2022-11-15T01:47:52;3.73;;;2.43;;
30998;SDS011;20549;50.042;8.968;2022-11-15T01:50:23;3.17;;;2.60;;
30998;SDS011;20549;50.042;8.968;2022-11-15T01:52:45;2.43;;;2.23;;
30998;SDS011;20549;50.042;8.968;2022-11-15T01:55:18;2.90;;;2.60;;
30998;SDS011;20549;50.042;8.968;2022-11-15T01:57:45;2.97;;;2.50;;
30998;SDS011;20549;50.042;8.968;2022-11-15T02:00:11;3.63;;;2.83;;
30998;SDS011;20549;50.042;8.968;2022-11-15T02:02:38;6.67;;;2.72;;
30998;SDS011;20549;50.042;8.968;2022-11-15T02:05:04;2.83;;;2.53;;
30998;SDS011;20549;50.042;8.968;2022-11-15T02:07:31;3.20;;;2.63;;
30998;SDS011;20549;50.042;8.968;2022-11-15T02:10:02;2.90;;;2.60;;
30998;SDS011;20549;50.042;8.968;2022-11-15T02:12:24;2.63;;;2.43;;
30998;SDS011;20549;50.042;8.968;2022-11-15T02:14:51;4.27;;;2.90;;
30998;SDS011;20549;50.042;8.968;2022-11-15T02:20:10;3.00;;;2.50;;
30998;SDS011;20549;50.042;8.968;2022-11-15T02:22:49;3.93;;;2.90;;
30998;SDS011;20549;50.042;8.968;2022-11-15T02:25:39;2.83;;;2.63;;
30998;SDS011;20549;50.042;8.968;2022-11-15T02:31:07;2.77;;;2.50;;
30998;SDS011;20549;50.042;8.968;2022-11-15T02:33:41;5.50;;;2.77;;
30998;SDS011;20549;50.042;8.968;2022-11-15T02:36:15;3.50;;;2.40;;
30998;SDS011;20549;50.042;8.968;2022-11-15T02:38:45;2.80;;;2.60;;
30998;SDS011;20549;50.042;8.968;2022-11-15T02:41:09;2.83;;;2.60;;
30998;SDS011;20549;50.042;8.968;2022-11-15T02:49:22;2.80;;;2.50;;
30998;SDS011;20549;50.042;8.968;2022-11-15T02:51:48;2.70;;;2.50;;
30998;SDS011;20549;50.042;8.968;2022-11-15T02:54:17;4.20;;;2.60;;
30998;SDS011;20549;50.042;8.968;2022-11-15T02:56:42;2.80;;;2.60;;
30998;SDS011;20549;50.042;8.968;2022-11-15T03:02:28;3.23;;;2.23;;
30998;SDS011;20549;50.042;8.968;2022-11-15T03:04:36;2.93;;;2.60;;
30998;SDS011;20549;50.042;8.968;2022-11-15T03:07:08;2.83;;;2.63;;
30998;SDS011;20549;50.042;8.968;2022-11-15T03:09:39;3.27;;;2.90;;
30998;SDS011;20549;50.042;8.968;2022-11-15T03:12:10;2.43;;;2.23;;
30998;SDS011;20549;50.042;8.968;2022-11-15T03:14:46;2.42;;;2.22;;
30998;SDS011;20549;50.042;8.968;2022-11-15T03:17:16;3.23;;;2.50;;
30998;SDS011;20549;50.042;8.968;2022-11-15T03:19:45;3.17;;;2.53;;
30998;SDS011;20549;50.042;8.968;2022-11-15T03:22:12;3.10;;;2.53;;
30998;SDS011;20549;50.042;8.968;2022-11-15T03:24:37;4.10;;;2.70;;
30998;SDS011;20549;50.042;8.968;2022-11-15T03:27:05;2.63;;;2.20;;
30998;SDS011;20549;50.042;8.968;2022-11-15T03:29:35;2.70;;;2.50;;
30998;SDS011;20549;50.042;8.968;2022-11-15T03:32:02;3.00;;;2.63;;
30998;SDS011;20549;50.042;8.968;2022-11-15T03:34:28;2.87;;;2.27;;
30998;SDS011;20549;50.042;8.968;2022-11-15T03:36:53;3.40;;;2.73;;
30998;SDS011;20549;50.042;8.968;2022-11-15T03:39:20;3.17;;;2.80;;
30998;SDS011;20549;50.042;8.968;2022-11-15T03:41:47;3.13;;;2.83;;
30998;SDS011;20549;50.042;8.968;2022-11-15T03:47:12;4.67;;;3.00;;
30998;SDS011;20549;50.042;8.968;2022-11-15T03:49:52;3.53;;;3.23;;
30998;SDS011;20549;50.042;8.968;2022-11-15T03:52:18;3.07;;;2.77;;
30998;SDS011;20549;50.042;8.968;2022-11-15T03:54:48;4.27;;;2.60;;
30998;SDS011;20549;50.042;8.968;2022-11-15T03:57:17;3.83;;;3.30;;
30998;SDS011;20549;50.042;8.968;2022-11-15T03:59:43;4.23;;;2.80;;
30998;SDS011;20549;50.042;8.968;2022-11-15T04:02:10;3.93;;;2.90;;
30998;SDS011;20549;50.042;8.968;2022-11-15T04:04:37;3.27;;;2.93;;
30998;SDS011;20549;50.042;8.968;2022-11-15T04:07:03;3.57;;;3.27;;
30998;SDS011;20549;50.042;8.968;2022-11-15T04:09:30;3.07;;;2.77;;
30998;SDS011;20549;50.042;8.968;2022-11-15T04:11:56;3.30;;;3.00;;
30998;SDS011;20549;50.042;8.968;2022-11-15T04:14:23;3.53;;;2.67;;
30998;SDS011;20549;50.042;8.968;2022-11-15T04:16:50;3.03;;;2.53;;
30998;SDS011;20549;50.042;8.968;2022-11-15T04:19:16;3.07;;;2.63;;
30998;SDS011;20549;50.042;8.968;2022-11-15T04:22:01;4.33;;;2.87;;
30998;SDS011;20549;50.042;8.968;2022-11-15T04:27:45;3.20;;;2.90;;
30998;SDS011;20549;50.042;8.968;2022-11-15T04:30:11;4.63;;;2.90;;
30998;SDS011;20549;50.042;8.968;2022-11-15T04:32:38;3.87;;;2.60;;
30998;SDS011;20549;50.042;8.968;2022-11-15T04:35:04;4.00;;;3.00;;
30998;SDS011;20549;50.042;8.968;2022-11-15T04:37:31;2.70;;;2.50;;
30998;SDS011;20549;50.042;8.968;2022-11-15T04:39:58;3.00;;;2.80;;
30998;SDS011;20549;50.042;8.968;2022-11-15T04:42:24;3.97;;;2.53;;
30998;SDS011;20549;50.042;8.968;2022-11-15T04:44:51;4.23;;;2.80;;
30998;SDS011;20549;50.042;8.968;2022-11-15T04:47:17;2.73;;;2.40;;
30998;SDS011;20549;50.042;8.968;2022-11-15T04:49:44;4.43;;;2.80;;
30998;SDS011;20549;50.042;8.968;2022-11-15T04:52:11;3.87;;;2.50;;
30998;SDS011;20549;50.042;8.968;2022-11-15T04:54:37;2.70;;;2.33;;
30998;SDS011;20549;50.042;8.968;2022-11-15T04:57:04;2.80;;;2.60;;
30998;SDS011;20549;50.042;8.968;2022-11-15T04:59:30;2.97;;;2.63;;
30998;SDS011;20549;50.042;8.968;2022-11-15T05:01:57;3.40;;;2.80;;
30998;SDS011;20549;50.042;8.968;2022-11-15T05:04:24;4.27;;;3.00;;
30998;SDS011;20549;50.042;8.968;2022-11-15T05:06:50;3.10;;;2.80;;
30998;SDS011;20549;50.042;8.968;2022-11-15T05:09:17;4.03;;;2.77;;
30998;SDS011;20549;50.042;8.968;2022-11-15T05:11:43;4.87;;;2.37;;
30998;SDS011;20549;50.042;8.968;2022-11-15T05:14:10;2.63;;;2.43;;
30998;SDS011;20549;50.042;8.968;2022-11-15T05:16:37;4.20;;;2.57;;
30998;SDS011;20549;50.042;8.968;2022-11-15T05:19:03;3.83;;;2.80;;
30998;SDS011;20549;50.042;8.968;2022-11-15T05:21:30;3.20;;;2.90;;
30998;SDS011;20549;50.042;8.968;2022-11-15T05:23:56;3.60;;;2.77;;
30998;SDS011;20549;50.042;8.968;2022-11-15T05:26:23;3.77;;;2.63;;
30998;SDS011;20549;50.042;8.968;2022-11-15T05:28:53;3.23;;;2.70;;
30998;SDS011;20549;50.042;8.968;2022-11-15T05:31:19;2.70;;;2.50;;
30998;SDS011;20549;50.042;8.968;2022-11-15T05:33:46;2.97;;;2.73;;
30998;SDS011;20549;50.042;8.968;2022-11-15T05:38:57;2.70;;;2.50;;
30998;SDS011;20549;50.042;8.968;2022-11-15T05:41:26;3.60;;;2.93;;
30998;SDS011;20549;50.042;8.968;2022-11-15T05:43:50;3.10;;;2.80;;
30998;SDS011;20549;50.042;8.968;2022-11-15T05:46:17;4.20;;;3.10;;
30998;SDS011;20549;50.042;8.968;2022-11-15T05:48:45;3.10;;;2.80;;
30998;SDS011;20549;50.042;8.968;2022-11-15T05:51:11;3.33;;;2.70;;
30998;SDS011;20549;50.042;8.968;2022-11-15T05:53:37;4.47;;;3.23;;
30998;SDS011;20549;50.042;8.968;2022-11-15T05:56:04;3.23;;;2.60;;
30998;SDS011;20549;50.042;8.968;2022-11-15T05:58:31;3.97;;;2.97;;
30998;SDS011;20549;50.042;8.968;2022-11-15T06:00:57;2.87;;;2.67;;
30998;SDS011;20549;50.042;8.968;2022-11-15T06:03:23;4.08;;;3.05;;
30998;SDS011;20549;50.042;8.968;2022-11-15T06:05:50;2.97;;;2.77;;
30998;SDS011;20549;50.042;8.968;2022-11-15T06:08:16;3.40;;;3.10;;
30998;SDS011;20549;50.042;8.968;2022-11-15T06:10:43;3.00;;;2.70;;
30998;SDS011;20549;50.042;8.968;2022-11-15T06:13:10;3.10;;;2.90;;
30998;SDS011;20549;50.042;8.968;2022-11-15T06:15:36;3.03;;;2.70;;
30998;SDS011;20549;50.042;8.968;2022-11-15T06:18:03;4.47;;;2.80;;
30998;SDS011;20549;50.042;8.968;2022-11-15T06:20:29;3.23;;;2.70;;
30998;SDS011;20549;50.042;8.968;2022-11-15T06:22:59;5.27;;;3.27;;
30998;SDS011;20549;50.042;8.968;2022-11-15T06:25:25;3.50;;;3.10;;
30998;SDS011;20549;50.042;8.968;2022-11-15T06:27:52;2.40;;;2.20;;
30998;SDS011;20549;50.042;8.968;2022-11-15T06:30:19;3.53;;;3.20;;
30998;SDS011;20549;50.042;8.968;2022-11-15T06:32:45;6.73;;;4.00;;
30998;SDS011;20549;50.042;8.968;2022-11-15T06:35:12;3.83;;;3.37;;
30998;SDS011;20549;50.042;8.968;2022-11-15T06:37:38;4.87;;;3.67;;
30998;SDS011;20549;50.042;8.968;2022-11-15T06:40:05;4.83;;;3.50;;
30998;SDS011;20549;50.042;8.968;2022-11-15T06:42:31;3.67;;;3.20;;
30998;SDS011;20549;50.042;8.968;2022-11-15T06:44:58;4.23;;;2.93;;
30998;SDS011;20549;50.042;8.968;2022-11-15T06:47:24;3.20;;;2.80;;
30998;SDS011;20549;50.042;8.968;2022-11-15T06:49:51;3.67;;;3.27;;
30998;SDS011;20549;50.042;8.968;2022-11-15T06:52:18;3.97;;;2.90;;
30998;SDS011;20549;50.042;8.968;2022-11-15T06:54:44;3.37;;;3.07;;
30998;SDS011;20549;50.042;8.968;2022-11-15T06:57:11;3.42;;;3.12;;
30998;SDS011;20549;50.042;8.968;2022-11-15T06:59:37;5.23;;;3.13;;
30998;SDS011;20549;50.042;8.968;2022-11-15T07:02:04;4.10;;;2.73;;
30998;SDS011;20549;50.042;8.968;2022-11-15T07:04:31;3.00;;;2.80;;
30998;SDS011;20549;50.042;8.968;2022-11-15T07:06:57;3.67;;;2.80;;
30998;SDS011;20549;50.042;8.968;2022-11-15T07:09:24;4.77;;;2.87;;
30998;SDS011;20549;50.042;8.968;2022-11-15T07:11:50;3.12;;;2.72;;
30998;SDS011;20549;50.042;8.968;2022-11-15T07:14:17;3.37;;;2.80;;
30998;SDS011;20549;50.042;8.968;2022-11-15T07:16:43;3.87;;;2.80;;
30998;SDS011;20549;50.042;8.968;2022-11-15T07:19:10;5.17;;;2.80;;
30998;SDS011;20549;50.042;8.968;2022-11-15T07:21:37;4.63;;;3.10;;
30998;SDS011;20549;50.042;8.968;2022-11-15T07:24:03;3.20;;;2.90;;
30998;SDS011;20549;50.042;8.968;2022-11-15T07:26:30;3.02;;;2.62;;
30998;SDS011;20549;50.042;8.968;2022-11-15T07:28:56;3.77;;;3.20;;
30998;SDS011;20549;50.042;8.968;2022-11-15T07:31:23;3.45;;;2.80;;
30998;SDS011;20549;50.042;8.968;2022-11-15T07:33:50;3.17;;;2.87;;
30998;SDS011;20549;50.042;8.968;2022-11-15T07:36:16;5.80;;;3.27;;
30998;SDS011;20549;50.042;8.968;2022-11-15T07:38:43;2.80;;;2.60;;
30998;SDS011;20549;50.042;8.968;2022-11-15T07:41:09;3.00;;;2.80;;
30998;SDS011;20549;50.042;8.968;2022-11-15T07:43:36;2.85;;;2.37;;
30998;SDS011;20549;50.042;8.968;2022-11-15T07:46:06;3.17;;;2.45;;
30998;SDS011;20549;50.042;8.968;2022-11-15T07:48:32;2.90;;;2.55;;
30998;SDS011;20549;50.042;8.968;2022-11-15T07:50:59;4.35;;;2.95;;
30998;SDS011;20549;50.042;8.968;2022-11-15T07:53:26;4.20;;;2.55;;
30998;SDS011;20549;50.042;8.968;2022-11-15T07:55:52;3.42;;;3.10;;
30998;SDS011;20549;50.042;8.968;2022-11-15T07:58:19;6.85;;;4.65;;
30998;SDS011;20549;50.042;8.968;2022-11-15T08:00:45;4.67;;;4.08;;
30998;SDS011;20549;50.042;8.968;2022-11-15T08:03:13;3.58;;;3.12;;
30998;SDS011;20549;50.042;8.968;2022-11-15T08:05:39;2.50;;;2.30;;
30998;SDS011;20549;50.042;8.968;2022-11-15T08:08:05;2.83;;;2.62;;
30998;SDS011;20549;50.042;8.968;2022-11-15T08:10:32;4.08;;;2.55;;
30998;SDS011;20549;50.042;8.968;2022-11-15T08:13:05;4.70;;;2.72;;
30998;SDS011;20549;50.042;8.968;2022-11-15T08:15:31;3.80;;;2.65;;
30998;SDS011;20549;50.042;8.968;2022-11-15T08:17:58;2.50;;;2.30;;
30998;SDS011;20549;50.042;8.968;2022-11-15T08:20:25;3.02;;;2.50;;
30998;SDS011;20549;50.042;8.968;2022-11-15T08:22:51;3.15;;;2.62;;
30998;SDS011;20549;50.042;8.968;2022-11-15T08:25:17;4.75;;;2.90;;
30998;SDS011;20549;50.042;8.968;2022-11-15T08:27:44;4.67;;;2.95;;
30998;SDS011;20549;50.042;8.968;2022-11-15T08:30:10;3.40;;;2.37;;
30998;SDS011;20549;50.042;8.968;2022-11-15T08:32:37;3.90;;;2.50;;
30998;SDS011;20549;50.042;8.968;2022-11-15T08:35:04;5.12;;;2.70;;
30998;SDS011;20549;50.042;8.968;2022-11-15T08:37:30;2.72;;;2.47;;
30998;SDS011;20549;50.042;8.968;2022-11-15T08:39:57;2.52;;;2.33;;
30998;SDS011;20549;50.042;8.968;2022-11-15T08:42:23;2.58;;;2.27;;
30998;SDS011;20549;50.042;8.968;2022-11-15T08:44:50;3.75;;;2.77;;
30998;SDS011;20549;50.042;8.968;2022-11-15T08:47:17;3.00;;;2.60;;
30998;SDS011;20549;50.042;8.968;2022-11-15T08:49:43;3.50;;;2.65;;
30998;SDS011;20549;50.042;8.968;2022-11-15T08:52:10;3.42;;;2.40;;
30998;SDS011;20549;50.042;8.968;2022-11-15T08:54:36;7.85;;;2.60;;
30998;SDS011;20549;50.042;8.968;2022-11-15T08:57:03;2.85;;;2.58;;
30998;SDS011;20549;50.042;8.968;2022-11-15T08:59:30;3.92;;;2.67;;
30998;SDS011;20549;50.042;8.968;2022-11-15T09:01:56;2.85;;;2.58;;
30998;SDS011;20549;50.042;8.968;2022-11-15T09:04:23;2.80;;;2.58;;
30998;SDS011;20549;50.042;8.968;2022-11-15T09:06:49;2.42;;;2.22;;
30998;SDS011;20549;50.042;8.968;2022-11-15T09:09:16;5.60;;;2.42;;
30998;SDS011;20549;50.042;8.968;2022-11-15T09:11:42;2.62;;;2.42;;
30998;SDS011;20549;50.042;8.968;2022-11-15T09:14:12;2.80;;;2.52;;
30998;SDS011;20549;50.042;8.968;2022-11-15T09:16:39;3.35;;;2.42;;
30998;SDS011;20549;50.042;8.968;2022-11-15T09:19:05;2.62;;;2.40;;
30998;SDS011;20549;50.042;8.968;2022-11-15T09:21:32;2.90;;;2.50;;
30998;SDS011;20549;50.042;8.968;2022-11-15T09:23:58;2.50;;;2.30;;
30998;SDS011;20549;50.042;8.968;2022-11-15T09:26:25;2.75;;;2.37;;
30998;SDS011;20549;50.042;8.968;2022-11-15T09:28:52;3.37;;;2.98;;
30998;SDS011;20549;50.042;8.968;2022-11-15T09:31:18;3.65;;;3.02;;
30998;SDS011;20549;50.042;8.968;2022-11-15T09:33:45;3.77;;;2.80;;
30998;SDS011;20549;50.042;8.968;2022-11-15T09:36:12;2.55;;;2.35;;
30998;SDS011;20549;50.042;8.968;2022-11-15T09:38:38;3.30;;;2.40;;
30998;SDS011;20549;50.042;8.968;2022-11-15T09:43:44;3.90;;;2.77;;
30998;SDS011;20549;50.042;8.968;2022-11-15T09:46:11;3.47;;;2.20;;
30998;SDS011;20549;50.042;8.968;2022-11-15T09:51:12;2.92;;;2.62;;
30998;SDS011;20549;50.042;8.968;2022-11-15T09:53:48;3.58;;;2.90;;
30998;SDS011;20549;50.042;8.968;2022-11-15T09:56:21;2.62;;;2.30;;
30998;SDS011;20549;50.042;8.968;2022-11-15T10:01:41;3.20;;;2.50;;
30998;SDS011;20549;50.042;8.968;2022-11-15T10:04:22;2.60;;;2.30;;
30998;SDS011;20549;50.042;8.968;2022-11-15T10:07:02;2.55;;;2.35;;
30998;SDS011;20549;50.042;8.968;2022-11-15T10:09:43;2.75;;;2.30;;
30998;SDS011;20549;50.042;8.968;2022-11-15T10:12:09;2.45;;;2.00;;
30998;SDS011;20549;50.042;8.968;2022-11-15T10:14:35;6.08;;;2.58;;
30998;SDS011;20549;50.042;8.968;2022-11-15T10:17:06;2.98;;;2.10;;
30998;SDS011;20549;50.042;8.968;2022-11-15T10:23:06;2.55;;;2.00;;
30998;SDS011;20549;50.042;8.968;2022-11-15T10:27:55;2.17;;;1.80;;
30998;SDS011;20549;50.042;8.968;2022-11-15T10:30:21;3.22;;;2.00;;
30998;SDS011;20549;50.042;8.968;2022-11-15T10:32:48;2.42;;;2.22;;
30998;SDS011;20549;50.042;8.968;2022-11-15T10:35:21;4.10;;;2.30;;
30998;SDS011;20549;50.042;8.968;2022-11-15T10:37:49;3.08;;;2.08;;
30998;SDS011;20549;50.042;8.968;2022-11-15T10:40:18;2.95;;;2.27;;
30998;SDS011;20549;50.042;8.968;2022-11-15T10:42:43;3.95;;;2.40;;
30998;SDS011;20549;50.042;8.968;2022-11-15T10:45:29;2.80;;;2.27;;
30998;SDS011;20549;50.042;8.968;2022-11-15T10:47:51;2.55;;;2.25;;
30998;SDS011;20549;50.042;8.968;2022-11-15T10:52:53;2.77;;;2.30;;
30998;SDS011;20549;50.042;8.968;2022-11-15T10:55:21;2.50;;;2.05;;
30998;SDS011;20549;50.042;8.968;2022-11-15T10:57:50;2.08;;;1.98;;
30998;SDS011;20549;50.042;8.968;2022-11-15T11:02:56;3.25;;;2.05;;
30998;SDS011;20549;50.042;8.968;2022-11-15T11:05:39;2.27;;;1.95;;
30998;SDS011;20549;50.042;8.968;2022-11-15T11:10:37;3.05;;;2.20;;
30998;SDS011;20549;50.042;8.968;2022-11-15T11:15:50;2.75;;;2.20;;
30998;SDS011;20549;50.042;8.968;2022-11-15T11:18:20;2.35;;;2.15;;
30998;SDS011;20549;50.042;8.968;2022-11-15T11:23:35;4.03;;;1.90;;
30998;SDS011;20549;50.042;8.968;2022-11-15T11:31:44;2.30;;;2.00;;
30998;SDS011;20549;50.042;8.968;2022-11-15T11:37:14;1.87;;;1.77;;
30998;SDS011;20549;50.042;8.968;2022-11-15T11:42:23;2.47;;;2.00;;
30998;SDS011;20549;50.042;8.968;2022-11-15T11:44:50;2.92;;;2.12;;
30998;SDS011;20549;50.042;8.968;2022-11-15T11:47:23;2.20;;;2.00;;
30998;SDS011;20549;50.042;8.968;2022-11-15T11:49:50;1.82;;;1.72;;
30998;SDS011;20549;50.042;8.968;2022-11-15T11:52:22;2.83;;;2.62;;
30998;SDS011;20549;50.042;8.968;2022-11-15T11:57:44;2.47;;;2.27;;
30998;SDS011;20549;50.042;8.968;2022-11-15T12:00:26;2.60;;;2.40;;
30998;SDS011;20549;50.042;8.968;2022-11-15T12:05:35;3.90;;;2.10;;
30998;SDS011;20549;50.042;8.968;2022-11-15T12:13:28;1.90;;;1.80;;
30998;SDS011;20549;50.042;8.968;2022-11-15T12:16:36;3.05;;;1.90;;
30998;SDS011;20549;50.042;8.968;2022-11-15T12:18:44;2.30;;;2.10;;
30998;SDS011;20549;50.042;8.968;2022-11-15T12:21:13;2.52;;;1.75;;
30998;SDS011;20549;50.042;8.968;2022-11-15T12:23:45;2.22;;;1.90;;
30998;SDS011;20549;50.042;8.968;2022-11-15T12:26:11;2.25;;;2.10;;
30998;SDS011;20549;50.042;8.968;2022-11-15T12:28:45;2.62;;;1.85;;
30998;SDS011;20549;50.042;8.968;2022-11-15T12:31:23;2.15;;;1.60;;
30998;SDS011;20549;50.042;8.968;2022-11-15T12:33:47;1.90;;;1.70;;
30998;SDS011;20549;50.042;8.968;2022-11-15T12:38:54;2.10;;;1.55;;
30998;SDS011;20549;50.042;8.968;2022-11-15T12:41:19;1.70;;;1.60;;
30998;SDS011;20549;50.042;8.968;2022-11-15T12:43:46;5.22;;;1.90;;
30998;SDS011;20549;50.042;8.968;2022-11-15T12:46:14;1.75;;;1.65;;
30998;SDS011;20549;50.042;8.968;2022-11-15T12:51:05;1.92;;;1.82;;
30998;SDS011;20549;50.042;8.968;2022-11-15T12:53:33;2.52;;;1.70;;
30998;SDS011;20549;50.042;8.968;2022-11-15T13:06:43;1.72;;;1.47;;
30998;SDS011;20549;50.042;8.968;2022-11-15T13:14:38;1.02;;;0.98;;
30998;SDS011;20549;50.042;8.968;2022-11-15T13:19:46;1.90;;;1.17;;
30998;SDS011;20549;50.042;8.968;2022-11-15T13:22:12;3.17;;;1.42;;
30998;SDS011;20549;50.042;8.968;2022-11-15T13:24:56;1.70;;;1.57;;
30998;SDS011;20549;50.042;8.968;2022-11-15T13:27:23;2.15;;;1.40;;
30998;SDS011;20549;50.042;8.968;2022-11-15T13:29:49;1.87;;;1.70;;
30998;SDS011;20549;50.042;8.968;2022-11-15T13:32:16;1.37;;;1.30;;
30998;SDS011;20549;50.042;8.968;2022-11-15T13:34:43;1.72;;;1.27;;
30998;SDS011;20549;50.042;8.968;2022-11-15T13:37:26;1.70;;;1.60;;
30998;SDS011;20549;50.042;8.968;2022-11-15T13:39:39;2.00;;;1.60;;
30998;SDS011;20549;50.042;8.968;2022-11-15T13:42:13;1.60;;;1.45;;
30998;SDS011;20549;50.042;8.968;2022-11-15T13:44:32;1.90;;;1.70;;
30998;SDS011;20549;50.042;8.968;2022-11-15T13:47:03;2.42;;;1.70;;
30998;SDS011;20549;50.042;8.968;2022-11-15T13:49:40;1.70;;;1.52;;
30998;SDS011;20549;50.042;8.968;2022-11-15T13:52:10;1.62;;;1.50;;
30998;SDS011;20549;50.042;8.968;2022-11-15T13:57:10;2.00;;;1.80;;
30998;SDS011;20549;50.042;8.968;2022-11-15T13:59:48;1.57;;;1.47;;
30998;SDS011;20549;50.042;8.968;2022-11-15T14:02:21;2.33;;;1.80;;
30998;SDS011;20549;50.042;8.968;2022-11-15T14:04:49;1.50;;;1.40;;
30998;SDS011;20549;50.042;8.968;2022-11-15T14:07:19;2.50;;;1.60;;
30998;SDS011;20549;50.042;8.968;2022-11-15T14:09:45;1.37;;;1.30;;
30998;SDS011;20549;50.042;8.968;2022-11-15T14:12:31;1.50;;;1.40;;
30998;SDS011;20549;50.042;8.968;2022-11-15T14:14:57;2.25;;;1.35;;
30998;SDS011;20549;50.042;8.968;2022-11-15T14:19:56;2.90;;;1.57;;
30998;SDS011;20549;50.042;8.968;2022-11-15T14:22:26;1.70;;;1.57;;
30998;SDS011;20549;50.042;8.968;2022-11-15T14:25:38;1.57;;;1.47;;
30998;SDS011;20549;50.042;8.968;2022-11-15T14:27:37;2.30;;;1.55;;
30998;SDS011;20549;50.042;8.968;2022-11-15T14:30:03;1.60;;;1.50;;
30998;SDS011;20549;50.042;8.968;2022-11-15T14:32:37;2.80;;;1.80;;
30998;SDS011;20549;50.042;8.968;2022-11-15T14:34:57;2.90;;;1.62;;
30998;SDS011;20549;50.042;8.968;2022-11-15T14:37:26;2.12;;;1.60;;
30998;SDS011;20549;50.042;8.968;2022-11-15T14:39:55;1.87;;;1.70;;
30998;SDS011;20549;50.042;8.968;2022-11-15T14:42:22;3.02;;;1.85;;
30998;SDS011;20549;50.042;8.968;2022-11-15T14:44:48;4.42;;;1.77;;
30998;SDS011;20549;50.042;8.968;2022-11-15T14:47:15;3.00;;;1.85;;
30998;SDS011;20549;50.042;8.968;2022-11-15T14:49:41;1.92;;;1.72;;
30998;SDS011;20549;50.042;8.968;2022-11-15T14:54:57;2.30;;;1.80;;
30998;SDS011;20549;50.042;8.968;2022-11-15T14:57:21;2.00;;;1.70;;
30998;SDS011;20549;50.042;8.968;2022-11-15T14:59:47;2.40;;;1.55;;
30998;SDS011;20549;50.042;8.968;2022-11-15T15:02:22;1.70;;;1.60;;
30998;SDS011;20549;50.042;8.968;2022-11-15T15:04:46;2.20;;;2.00;;
30998;SDS011;20549;50.042;8.968;2022-11-15T15:07:13;2.42;;;1.87;;
30998;SDS011;20549;50.042;8.968;2022-11-15T15:09:40;2.65;;;2.20;;
30998;SDS011;20549;50.042;8.968;2022-11-15T15:12:12;1.70;;;1.60;;
30998;SDS011;20549;50.042;8.968;2022-11-15T15:14:42;3.33;;;2.00;;
30998;SDS011;20549;50.042;8.968;2022-11-15T15:17:08;2.02;;;1.72;;
30998;SDS011;20549;50.042;8.968;2022-11-15T15:19:35;4.25;;;1.90;;
30998;SDS011;20549;50.042;8.968;2022-11-15T15:22:01;1.70;;;1.60;;
30998;SDS011;20549;50.042;8.968;2022-11-15T15:24:28;1.87;;;1.72;;
30998;SDS011;20549;50.042;8.968;2022-11-15T15:26:55;1.47;;;1.37;;
30998;SDS011;20549;50.042;8.968;2022-11-15T15:29:21;1.70;;;1.60;;
30998;SDS011;20549;50.042;8.968;2022-11-15T15:31:48;2.75;;;1.70;;
30998;SDS011;20549;50.042;8.968;2022-11-15T15:34:14;2.10;;;1.82;;
30998;SDS011;20549;50.042;8.968;2022-11-15T15:36:41;1.95;;;1.80;;
30998;SDS011;20549;50.042;8.968;2022-11-15T15:39:08;2.17;;;1.98;;
30998;SDS011;20549;50.042;8.968;2022-11-15T15:41:34;2.27;;;1.92;;
30998;SDS011;20549;50.042;8.968;2022-11-15T15:44:01;2.62;;;2.37;;
30998;SDS011;20549;50.042;8.968;2022-11-15T15:46:27;2.00;;;1.87;;
30998;SDS011;20549;50.042;8.968;2022-11-15T15:48:54;2.00;;;1.80;;
30998;SDS011;20549;50.042;8.968;2022-11-15T15:51:20;2.27;;;2.08;;
30998;SDS011;20549;50.042;8.968;2022-11-15T15:53:47;2.17;;;1.98;;
30998;SDS011;20549;50.042;8.968;2022-11-15T15:56:14;3.77;;;1.98;;
30998;SDS011;20549;50.042;8.968;2022-11-15T15:58:40;3.05;;;2.67;;
30998;SDS011;20549;50.042;8.968;2022-11-15T16:01:07;3.37;;;2.12;;
30998;SDS011;20549;50.042;8.968;2022-11-15T16:03:33;1.87;;;1.77;;
30998;SDS011;20549;50.042;8.968;2022-11-15T16:06:00;3.52;;;1.82;;
30998;SDS011;20549;50.042;8.968;2022-11-15T16:08:27;2.37;;;2.08;;
30998;SDS011;20549;50.042;8.968;2022-11-15T16:10:53;3.65;;;2.47;;
30998;SDS011;20549;50.042;8.968;2022-11-15T16:13:20;2.17;;;2.00;;
30998;SDS011;20549;50.042;8.968;2022-11-15T16:15:47;3.00;;;2.08;;
30998;SDS011;20549;50.042;8.968;2022-11-15T16:18:14;2.67;;;2.33;;
30998;SDS011;20549;50.042;8.968;2022-11-15T16:20:40;3.12;;;2.20;;
30998;SDS011;20549;50.042;8.968;2022-11-15T16:23:07;2.90;;;1.90;;
30998;SDS011;20549;50.042;8.968;2022-11-15T16:28:02;2.30;;;2.10;;
30998;SDS011;20549;50.042;8.968;2022-11-15T16:30:29;5.10;;;2.60;;
30998;SDS011;20549;50.042;8.968;2022-11-15T16:32:55;4.20;;;2.72;;
30998;SDS011;20549;50.042;8.968;2022-11-15T16:35:22;3.22;;;2.37;;
30998;SDS011;20549;50.042;8.968;2022-11-15T16:37:48;2.70;;;1.87;;